createdAt,value
2019-04-13T00:00:39.932Z,3.85
2019-04-13T00:03:08.390Z,3.86
2019-04-13T00:05:44.310Z,3.85
2019-04-13T00:08:14.456Z,3.85
2019-04-13T00:10:46.999Z,3.84
2019-04-13T00:13:15.463Z,3.82
2019-04-13T00:15:43.973Z,3.82
2019-04-13T00:18:12.433Z,3.82
2019-04-13T00:20:40.891Z,3.80
2019-04-13T00:23:09.391Z,3.79
2019-04-13T00:25:37.848Z,3.78
2019-04-13T00:28:06.307Z,3.76
2019-04-13T00:30:34.819Z,3.75
2019-04-13T00:33:03.310Z,3.76
2019-04-13T00:35:31.769Z,3.75
2019-04-13T00:38:00.260Z,3.75
2019-04-13T00:40:28.719Z,3.73
2019-04-13T00:42:57.170Z,3.71
2019-04-13T00:45:25.684Z,3.66
2019-04-13T00:47:54.133Z,3.62
2019-04-13T00:50:22.594Z,3.58
2019-04-13T00:52:52.156Z,3.54
2019-04-13T00:55:20.625Z,3.50
2019-04-13T00:57:49.154Z,3.45
2019-04-13T01:00:17.724Z,3.43
2019-04-13T01:02:46.170Z,3.41
2019-04-13T01:05:14.638Z,3.39
2019-04-13T01:07:43.153Z,3.39
2019-04-13T01:10:11.764Z,3.38
2019-04-13T01:12:40.233Z,3.37
2019-04-13T01:15:08.787Z,3.35
2019-04-13T01:17:37.255Z,3.37
2019-04-13T01:20:07.042Z,3.36
2019-04-13T01:22:35.549Z,3.37
2019-04-13T01:25:04.674Z,3.36
2019-04-13T01:27:33.131Z,3.35
2019-04-13T01:30:01.626Z,3.35
2019-04-13T01:32:30.100Z,3.37
2019-04-13T01:35:05.674Z,3.38
2019-04-13T01:37:28.781Z,3.37
2019-04-13T01:39:57.240Z,3.38
2019-04-13T01:42:25.697Z,3.39
2019-04-13T01:44:54.199Z,3.41
2019-04-13T01:47:22.670Z,3.41
2019-04-13T01:49:51.122Z,3.40
2019-04-13T01:52:19.607Z,3.39
2019-04-13T01:54:48.187Z,3.39
2019-04-13T01:57:16.651Z,3.38
2019-04-13T01:59:45.185Z,3.36
2019-04-13T02:02:18.204Z,3.36
2019-04-13T02:04:48.291Z,3.36
2019-04-13T02:07:27.433Z,3.34
2019-04-13T02:10:03.290Z,3.33
2019-04-13T02:12:31.750Z,3.33
2019-04-13T02:15:00.237Z,3.34
2019-04-13T02:17:28.711Z,3.34
2019-04-13T02:19:57.239Z,3.33
2019-04-13T02:22:25.731Z,3.34
2019-04-13T02:24:54.188Z,3.33
2019-04-13T02:27:22.644Z,3.37
2019-04-13T02:29:51.150Z,3.37
2019-04-13T02:32:19.604Z,3.36
2019-04-13T02:34:48.055Z,3.37
2019-04-13T02:37:16.603Z,3.38
2019-04-13T02:39:45.053Z,3.38
2019-04-13T02:42:13.516Z,3.39
2019-04-13T02:44:42.016Z,3.38
2019-04-13T02:47:10.474Z,3.38
2019-04-13T02:49:38.945Z,3.37
2019-04-13T02:52:07.428Z,3.38
2019-04-13T02:54:35.881Z,3.37
2019-04-13T02:57:04.600Z,3.37
2019-04-13T02:59:33.055Z,3.36
2019-04-13T03:02:01.506Z,3.33
2019-04-13T03:04:30.043Z,3.32
2019-04-13T03:06:58.540Z,3.30
2019-04-13T03:09:27.042Z,3.28
2019-04-13T03:11:55.495Z,3.27
2019-04-13T03:14:23.990Z,3.25
2019-04-13T03:16:57.140Z,3.24
2019-04-13T03:19:33.005Z,3.21
2019-04-13T03:22:01.492Z,3.18
2019-04-13T03:24:29.954Z,3.16
2019-04-13T03:26:58.467Z,3.13
2019-04-13T03:29:26.938Z,3.12
2019-04-13T03:31:55.389Z,3.11
2019-04-13T03:34:23.939Z,3.11
2019-04-13T03:36:52.381Z,3.11
2019-04-13T03:39:20.838Z,3.09
2019-04-13T03:41:49.331Z,3.07
2019-04-13T03:44:17.795Z,3.07
2019-04-13T03:46:46.252Z,3.05
2019-04-13T03:49:14.777Z,3.04
2019-04-13T03:51:43.224Z,3.01
2019-04-13T03:54:11.702Z,3.01
2019-04-13T03:56:40.182Z,2.99
2019-04-13T03:59:09.640Z,2.96
2019-04-13T04:01:38.086Z,2.95
2019-04-13T04:04:06.587Z,2.93
2019-04-13T04:06:35.039Z,2.92
2019-04-13T04:09:05.426Z,2.87
2019-04-13T04:11:33.919Z,2.84
2019-04-13T04:14:02.384Z,2.82
2019-04-13T04:16:31.039Z,2.81
2019-04-13T04:18:59.538Z,2.79
2019-04-13T04:21:27.991Z,2.79
2019-04-13T04:23:56.448Z,2.79
2019-04-13T04:26:25.023Z,2.78
2019-04-13T04:28:53.482Z,2.80
2019-04-13T04:31:21.960Z,2.80
2019-04-13T04:33:50.456Z,2.80
2019-04-13T04:36:23.954Z,2.80
2019-04-13T04:38:49.089Z,2.81
2019-04-13T04:41:17.590Z,2.83
2019-04-13T04:43:46.046Z,2.84
2019-04-13T04:46:14.508Z,2.86
2019-04-13T04:48:42.996Z,2.88
2019-04-13T04:51:11.755Z,2.91
2019-04-13T04:53:40.190Z,2.91
2019-04-13T04:56:08.703Z,2.93
2019-04-13T04:58:37.150Z,2.95
2019-04-13T05:01:05.735Z,2.97
2019-04-13T05:03:34.224Z,3.00
2019-04-13T05:06:02.703Z,3.05
2019-04-13T05:08:31.147Z,3.05
2019-04-13T05:10:59.654Z,3.09
2019-04-13T05:13:28.109Z,3.11
2019-04-13T05:15:56.565Z,3.12
2019-04-13T05:18:25.034Z,3.13
2019-04-13T05:20:53.490Z,3.15
2019-04-13T05:23:21.946Z,3.17
2019-04-13T05:25:50.431Z,3.20
2019-04-13T05:28:18.892Z,3.20
2019-04-13T05:30:47.345Z,3.22
2019-04-13T05:33:15.844Z,3.24
2019-04-13T05:35:44.310Z,3.26
2019-04-13T05:38:12.763Z,3.29
2019-04-13T05:40:41.249Z,3.31
2019-04-13T05:43:09.699Z,3.35
2019-04-13T05:45:38.161Z,3.39
2019-04-13T05:48:06.654Z,3.44
2019-04-13T05:50:35.116Z,3.49
2019-04-13T05:53:03.585Z,3.53
2019-04-13T05:55:32.080Z,3.60
2019-04-13T05:58:00.527Z,3.71
2019-04-13T06:00:28.981Z,3.78
2019-04-13T06:02:58.467Z,3.87
2019-04-13T06:05:26.929Z,3.95
2019-04-13T06:07:55.382Z,4.03
2019-04-13T06:10:23.884Z,4.20
2019-04-13T06:12:54.196Z,4.20
2019-04-13T06:15:22.665Z,4.40
2019-04-13T06:17:52.784Z,4.40
2019-04-13T06:20:21.240Z,4.47
2019-04-13T06:22:52.060Z,4.67
2019-04-13T06:25:19.915Z,4.74
2019-04-13T06:27:48.375Z,4.74
2019-04-13T06:30:27.343Z,4.84
2019-04-13T06:32:57.441Z,4.89
2019-04-13T06:35:27.565Z,4.89
2019-04-13T06:37:56.048Z,4.92
2019-04-13T06:40:24.511Z,4.90
2019-04-13T06:42:54.766Z,4.87
2019-04-13T06:45:23.179Z,4.90
2019-04-13T06:47:51.631Z,4.90
2019-04-13T06:50:20.090Z,4.90
2019-04-13T06:52:48.595Z,4.94
2019-04-13T06:55:17.040Z,4.97
2019-04-13T06:57:45.561Z,5.04
2019-04-13T07:00:15.597Z,5.03
2019-04-13T07:02:44.305Z,5.03
2019-04-13T07:05:12.962Z,5.04
2019-04-13T07:07:45.962Z,5.06
2019-04-13T07:10:31.019Z,5.09
2019-04-13T07:12:59.355Z,5.12
2019-04-13T07:15:31.560Z,5.23
2019-04-13T07:17:59.739Z,5.37
2019-04-13T07:20:28.237Z,5.47
2019-04-13T07:23:00.528Z,5.53
2019-04-13T07:25:33.179Z,5.57
2019-04-13T07:28:01.737Z,5.66
2019-04-13T07:30:29.599Z,5.71
2019-04-13T07:32:58.059Z,5.75
2019-04-13T07:35:26.584Z,5.77
2019-04-13T07:37:55.049Z,5.83
2019-04-13T07:40:23.515Z,5.88
2019-04-13T07:42:51.996Z,5.92
2019-04-13T07:45:27.819Z,5.94
2019-04-13T07:48:13.790Z,5.98
2019-04-13T07:50:50.118Z,6.03
2019-04-13T07:53:20.259Z,6.08
2019-04-13T07:55:48.715Z,6.15
2019-04-13T07:58:18.836Z,6.22
2019-04-13T08:00:47.341Z,6.30
2019-04-13T08:03:15.792Z,6.35
2019-04-13T08:05:44.513Z,6.44
2019-04-13T08:08:13.013Z,6.54
2019-04-13T08:10:41.455Z,6.58
2019-04-13T08:13:09.907Z,6.65
2019-04-13T08:15:38.406Z,6.68
2019-04-13T08:18:08.906Z,6.75
2019-04-13T08:20:37.378Z,6.80
2019-04-13T08:23:07.636Z,6.85
2019-04-13T08:25:37.742Z,6.90
2019-04-13T08:28:06.263Z,6.96
2019-04-13T08:30:35.999Z,7.02
2019-04-13T08:33:04.629Z,7.09
2019-04-13T08:35:33.059Z,7.16
2019-04-13T08:38:12.509Z,7.24
2019-04-13T08:40:31.722Z,7.32
2019-04-13T08:43:00.179Z,7.40
2019-04-13T08:45:28.701Z,7.49
2019-04-13T08:47:57.146Z,7.52
2019-04-13T08:50:25.592Z,7.61
2019-04-13T08:52:54.267Z,7.68
2019-04-13T08:55:22.706Z,7.76
2019-04-13T08:57:51.161Z,7.82
2019-04-13T09:00:19.718Z,7.92
2019-04-13T09:02:48.174Z,8.07
2019-04-13T09:05:16.644Z,8.13
2019-04-13T09:07:46.133Z,8.20
2019-04-13T09:10:16.632Z,8.26
2019-04-13T09:12:51.088Z,8.39
2019-04-13T09:15:16.833Z,8.53
2019-04-13T09:17:57.735Z,8.68
2019-04-13T09:20:41.473Z,8.58
2019-04-13T09:23:10.896Z,8.78
2019-04-13T09:25:39.424Z,8.79
2019-04-13T09:28:11.560Z,8.85
2019-04-13T09:30:39.731Z,8.92
2019-04-13T09:33:10.544Z,9.05
2019-04-13T09:35:39.014Z,9.22
2019-04-13T09:38:07.460Z,9.40
2019-04-13T09:40:35.921Z,9.56
2019-04-13T09:43:06.149Z,9.69
2019-04-13T09:45:35.084Z,9.81
2019-04-13T09:48:03.516Z,9.90
2019-04-13T09:50:31.981Z,9.92
2019-04-13T09:53:00.442Z,9.90
2019-04-13T09:55:29.383Z,9.82
2019-04-13T09:58:00.834Z,9.71
2019-04-13T10:00:28.390Z,9.59
2019-04-13T10:02:56.990Z,9.45
2019-04-13T10:05:29.219Z,9.34
2019-04-13T10:07:55.669Z,9.28
2019-04-13T10:10:24.257Z,9.18
2019-04-13T10:13:00.103Z,9.10
2019-04-13T10:15:48.665Z,9.01
2019-04-13T10:18:22.405Z,8.92
2019-04-13T10:20:50.837Z,8.83
2019-04-13T10:23:19.285Z,8.78
2019-04-13T10:25:47.793Z,8.73
2019-04-13T10:28:16.869Z,8.71
2019-04-13T10:30:45.961Z,8.68
2019-04-13T10:33:14.479Z,8.67
2019-04-13T10:35:43.184Z,8.68
2019-04-13T10:38:13.278Z,8.67
2019-04-13T10:40:42.895Z,8.65
2019-04-13T10:43:11.419Z,8.57
2019-04-13T10:45:45.199Z,8.54
2019-04-13T10:48:18.497Z,8.53
2019-04-13T10:50:48.602Z,8.50
2019-04-13T10:53:17.060Z,8.47
2019-04-13T10:55:45.599Z,8.43
2019-04-13T10:58:14.129Z,8.41
2019-04-13T11:00:42.566Z,8.41
2019-04-13T11:03:11.085Z,8.39
2019-04-13T11:05:42.274Z,8.39
2019-04-13T11:08:11.946Z,8.42
2019-04-13T11:10:42.944Z,8.44
2019-04-13T11:13:12.524Z,8.47
2019-04-13T11:15:44.301Z,8.50
2019-04-13T11:18:12.400Z,8.55
2019-04-13T11:20:45.284Z,8.61
2019-04-13T11:23:15.266Z,8.66
2019-04-13T11:25:46.696Z,8.72
2019-04-13T11:28:16.318Z,8.79
2019-04-13T11:30:46.460Z,8.90
2019-04-13T11:33:15.027Z,8.99
2019-04-13T11:35:48.683Z,9.07
2019-04-13T11:38:24.359Z,9.13
2019-04-13T11:41:04.697Z,9.25
2019-04-13T11:43:46.734Z,9.28
2019-04-13T11:46:29.992Z,9.37
2019-04-13T11:49:11.396Z,9.42
2019-04-13T11:51:54.480Z,9.45
2019-04-13T11:54:28.122Z,9.42
2019-04-13T11:56:56.216Z,9.36
2019-04-13T11:59:27.615Z,9.31
2019-04-13T12:02:08.066Z,9.25
2019-04-13T12:04:53.079Z,9.28
2019-04-13T12:07:38.374Z,9.30
2019-04-13T12:10:21.795Z,9.36
2019-04-13T12:13:09.404Z,9.40
2019-04-13T12:15:39.634Z,9.45
2019-04-13T12:18:10.237Z,9.55
2019-04-13T12:20:58.476Z,9.59
2019-04-13T12:23:27.006Z,9.70
2019-04-13T12:25:56.587Z,9.75
2019-04-13T12:28:25.219Z,9.80
2019-04-13T12:30:56.490Z,9.85
2019-04-13T12:33:26.943Z,9.92
2019-04-13T12:35:57.027Z,9.95
2019-04-13T12:38:25.551Z,9.93
2019-04-13T12:40:58.381Z,9.91
2019-04-13T12:43:30.406Z,9.85
2019-04-13T12:46:00.347Z,9.78
2019-04-13T12:48:30.044Z,9.71
2019-04-13T12:50:59.827Z,9.70
2019-04-13T12:53:28.339Z,9.73
2019-04-13T12:55:56.941Z,9.80
2019-04-13T12:58:27.144Z,9.84
2019-04-13T13:01:00.026Z,9.86
2019-04-13T13:03:36.514Z,9.92
2019-04-13T13:06:05.651Z,9.99
2019-04-13T13:08:36.892Z,9.97
2019-04-13T13:11:12.105Z,9.90
2019-04-13T13:13:39.038Z,9.78
2019-04-13T13:16:14.939Z,9.63
2019-04-13T13:18:42.356Z,9.49
2019-04-13T13:21:13.678Z,9.44
2019-04-13T13:26:52.212Z,9.33
2019-04-13T13:29:24.998Z,9.23
2019-04-13T13:31:53.513Z,9.20
2019-04-13T13:34:28.052Z,9.15
2019-04-13T13:36:57.878Z,9.04
2019-04-13T13:39:30.074Z,8.95
2019-04-13T13:42:00.290Z,8.84
2019-04-13T13:44:30.750Z,8.74
2019-04-13T13:47:02.659Z,8.65
2019-04-13T13:49:36.013Z,8.56
2019-04-13T13:52:08.222Z,8.48
2019-04-13T13:54:37.710Z,8.43
2019-04-13T13:57:06.446Z,8.38
2019-04-13T13:59:35.819Z,8.33
2019-04-13T14:02:22.349Z,8.36
2019-04-13T14:04:55.370Z,8.43
2019-04-13T14:07:25.787Z,8.51
2019-04-13T14:10:13.660Z,8.54
2019-04-13T14:12:46.856Z,8.56
2019-04-13T14:15:15.390Z,8.58
2019-04-13T14:17:50.475Z,8.56
2019-04-13T14:20:17.802Z,8.51
2019-04-13T14:22:47.976Z,8.45
2019-04-13T14:25:16.478Z,8.40
2019-04-13T14:27:44.940Z,8.34
2019-04-13T14:30:17.593Z,8.29
2019-04-13T14:32:52.849Z,8.19
2019-04-13T14:35:21.310Z,8.05
2019-04-13T14:37:55.330Z,7.94
2019-04-13T14:40:23.846Z,7.82
2019-04-13T14:42:54.948Z,7.73
2019-04-13T14:45:27.234Z,7.67
2019-04-13T14:47:56.475Z,7.62
2019-04-13T14:50:25.152Z,7.58
2019-04-13T14:52:53.616Z,7.58
2019-04-13T14:55:22.246Z,7.58
2019-04-13T14:57:50.715Z,7.56
2019-04-13T15:00:21.189Z,7.55
2019-04-13T15:02:50.500Z,7.53
2019-04-13T15:05:19.007Z,7.52
2019-04-13T15:07:48.841Z,7.51
2019-04-13T15:10:17.299Z,7.53
2019-04-13T15:12:45.799Z,7.53
2019-04-13T15:15:15.540Z,7.52
2019-04-13T15:17:49.340Z,7.50
2019-04-13T15:20:23.047Z,7.43
2019-04-13T15:22:49.758Z,7.36
2019-04-13T15:25:20.476Z,7.30
2019-04-13T15:27:53.213Z,7.25
2019-04-13T15:30:20.305Z,7.14
2019-04-13T15:32:49.400Z,7.04
2019-04-13T15:35:19.176Z,6.92
2019-04-13T15:37:50.071Z,6.82
2019-04-13T15:40:22.428Z,6.74
2019-04-13T15:42:56.957Z,6.65
2019-04-13T15:45:21.006Z,6.57
2019-04-13T15:47:49.505Z,6.48
2019-04-13T15:50:19.944Z,6.43
2019-04-13T15:52:51.159Z,6.41
2019-04-13T15:55:20.711Z,6.39
2019-04-13T15:57:49.394Z,6.40
2019-04-13T16:00:19.244Z,6.42
2019-04-13T16:02:49.952Z,6.43
2019-04-13T16:05:19.821Z,6.43
2019-04-13T16:07:50.696Z,6.42
2019-04-13T16:10:21.130Z,6.40
2019-04-13T16:13:02.650Z,6.38
2019-04-13T16:15:34.532Z,6.32
2019-04-13T16:18:04.613Z,6.27
2019-04-13T16:20:38.090Z,6.25
2019-04-13T16:23:08.963Z,6.27
2019-04-13T16:25:44.561Z,6.30
2019-04-13T16:28:20.046Z,6.35
2019-04-13T16:31:09.580Z,6.38
2019-04-13T16:33:48.278Z,6.43
2019-04-13T16:36:35.396Z,6.47
2019-04-13T16:39:11.795Z,6.48
2019-04-13T16:41:38.066Z,6.46
2019-04-13T16:44:24.316Z,6.39
2019-04-13T16:46:55.819Z,6.31
2019-04-13T16:49:29.385Z,6.33
2019-04-13T16:52:05.325Z,6.39
2019-04-13T16:54:50.467Z,6.52
2019-04-13T16:57:15.171Z,6.67
2019-04-13T17:00:01.756Z,6.82
2019-04-13T17:02:46.625Z,6.98
2019-04-13T17:05:20.200Z,7.11
2019-04-13T17:07:54.883Z,7.17
2019-04-13T17:10:24.929Z,7.08
2019-04-13T17:12:56.965Z,7.01
2019-04-13T17:15:33.367Z,6.86
2019-04-13T17:18:03.754Z,6.75
2019-04-13T17:20:35.510Z,6.60
2019-04-13T17:23:25.034Z,6.45
2019-04-13T17:26:00.084Z,6.33
2019-04-13T17:28:43.503Z,6.19
2019-04-13T17:31:20.597Z,6.07
2019-04-13T17:33:51.982Z,5.94
2019-04-13T17:36:22.728Z,5.82
2019-04-13T17:38:53.738Z,5.57
2019-04-13T17:41:25.258Z,5.57
2019-04-13T17:44:02.120Z,5.45
2019-04-13T17:46:49.899Z,5.23
2019-04-13T17:49:25.982Z,5.16
2019-04-13T17:52:13.255Z,5.09
2019-04-13T17:54:49.589Z,5.09
2019-04-13T17:57:22.826Z,5.01
2019-04-13T18:00:03.729Z,4.94
2019-04-13T18:02:52.711Z,4.83
2019-04-13T18:05:41.424Z,4.83
2019-04-13T18:08:40.732Z,4.75
2019-04-13T18:11:13.105Z,4.75
2019-04-13T18:13:59.436Z,4.71
2019-04-13T18:16:34.312Z,4.66
2019-04-13T18:19:06.480Z,4.52
2019-04-13T18:21:34.974Z,4.52
2019-04-13T18:24:03.790Z,4.49
2019-04-13T18:26:42.049Z,4.46
2019-04-13T18:29:17.411Z,4.41
2019-04-13T18:31:48.215Z,4.35
2019-04-13T18:34:18.792Z,4.26
2019-04-13T18:36:50.710Z,4.22
2019-04-13T18:39:21.223Z,4.22
2019-04-13T18:41:50.759Z,4.20
2019-04-13T18:44:21.628Z,4.18
2019-04-13T18:46:52.762Z,4.10
2019-04-13T18:49:23.894Z,4.10
2019-04-13T18:51:52.407Z,4.08
2019-04-13T18:54:22.166Z,4.04
2019-04-13T18:56:53.331Z,4.01
2019-04-13T18:59:24.064Z,4.00
2019-04-13T19:01:53.930Z,3.98
2019-04-13T19:04:22.429Z,3.97
2019-04-13T19:06:50.906Z,3.95
2019-04-13T19:09:21.124Z,3.95
2019-04-13T19:11:49.605Z,3.91
2019-04-13T19:14:19.613Z,3.89
2019-04-13T19:16:49.754Z,3.86
2019-04-13T19:19:19.909Z,3.84
2019-04-13T19:21:52.228Z,3.82
2019-04-13T19:24:20.773Z,3.80
2019-04-13T19:26:49.235Z,3.79
2019-04-13T19:29:21.451Z,3.79
2019-04-13T19:31:52.701Z,3.79
2019-04-13T19:34:22.905Z,3.78
2019-04-13T19:36:53.225Z,3.78
2019-04-13T19:39:24.687Z,3.78
2019-04-13T19:41:55.000Z,3.80
2019-04-13T19:44:24.218Z,3.81
2019-04-13T19:46:52.745Z,3.82
2019-04-13T19:49:21.266Z,3.83
2019-04-13T19:52:10.197Z,3.85
2019-04-13T19:54:39.792Z,3.88
2019-04-13T19:57:09.487Z,3.89
2019-04-13T19:59:39.894Z,3.90
2019-04-13T20:02:08.232Z,3.72
2019-04-13T20:04:37.880Z,3.94
2019-04-13T20:07:08.337Z,3.96
2019-04-13T20:09:38.393Z,4.00
2019-04-13T20:12:09.824Z,4.02
2019-04-13T20:14:39.965Z,4.04
2019-04-13T20:17:08.453Z,4.06
2019-04-13T20:19:41.895Z,4.07
2019-04-13T20:22:13.262Z,4.06
2019-04-13T20:24:44.744Z,4.06
2019-04-13T20:27:15.189Z,4.03
2019-04-13T20:29:46.977Z,3.99
2019-04-13T20:32:16.707Z,3.93
2019-04-13T20:34:46.591Z,3.89
2019-04-13T20:37:18.750Z,3.87
2019-04-13T20:39:57.208Z,3.83
2019-04-13T20:42:32.900Z,3.81
2019-04-13T20:45:02.694Z,3.78
2019-04-13T20:47:31.204Z,3.76
2019-04-13T20:50:01.342Z,3.74
2019-04-13T20:52:30.717Z,3.74
2019-04-13T20:55:00.373Z,3.74
2019-04-13T21:00:11.813Z,3.78
2019-04-13T21:02:41.656Z,3.83
2019-04-13T21:05:20.910Z,3.89
2019-04-13T21:07:49.320Z,3.95
2019-04-13T21:10:18.103Z,4.02
2019-04-13T21:12:46.626Z,4.07
2019-04-13T21:15:16.063Z,4.11
2019-04-13T21:17:44.620Z,4.17
2019-04-13T21:20:16.564Z,4.21
2019-04-13T21:22:46.338Z,4.24
2019-04-13T21:25:16.187Z,4.25
2019-04-13T21:27:44.879Z,4.39
2019-04-13T21:30:14.311Z,4.39
2019-04-13T21:32:42.837Z,4.42
2019-04-13T21:35:12.143Z,4.44
2019-04-13T21:37:40.701Z,4.48
2019-04-13T21:40:10.219Z,4.47
2019-04-13T21:42:38.785Z,4.52
2019-04-13T21:45:07.989Z,4.56
2019-04-13T21:47:36.550Z,4.58
2019-04-13T21:50:24.130Z,4.60
2019-04-13T21:52:54.206Z,4.60
2019-04-13T21:55:37.597Z,4.60
2019-04-13T21:58:07.720Z,4.62
2019-04-13T22:00:53.190Z,4.65
2019-04-13T22:03:22.944Z,4.65
2019-04-13T22:05:52.779Z,4.64
2019-04-13T22:08:21.364Z,4.69
2019-04-13T22:10:50.820Z,4.68
2019-04-13T22:13:20.547Z,4.68
2019-04-13T22:15:49.183Z,4.74
2019-04-13T22:18:17.639Z,4.74
2019-04-13T22:20:48.716Z,4.75
2019-04-13T22:23:17.190Z,4.76
2019-04-13T22:25:45.650Z,4.76
2019-04-13T22:28:16.646Z,4.75
2019-04-13T22:30:52.386Z,4.75
2019-04-13T22:33:21.791Z,4.80
2019-04-13T22:35:58.502Z,4.81
2019-04-13T22:38:28.058Z,4.85
2019-04-13T22:40:56.730Z,4.84
2019-04-13T22:43:26.257Z,4.84
2019-04-13T22:45:55.691Z,4.86
2019-04-13T22:48:26.831Z,4.90
2019-04-13T22:51:09.881Z,4.90
2019-04-13T22:53:57.201Z,4.92
2019-04-13T22:56:33.423Z,4.92
2019-04-13T22:59:02.258Z,4.92
2019-04-13T23:01:39.820Z,4.92
2019-04-13T23:04:08.465Z,4.94
2019-04-13T23:06:37.885Z,4.94
2019-04-13T23:09:08.577Z,4.92
2019-04-13T23:11:37.130Z,4.97
2019-04-13T23:14:06.803Z,4.99
2019-04-13T23:16:37.615Z,4.98
2019-04-13T23:19:06.862Z,5.02
2019-04-13T23:21:35.419Z,5.02
2019-04-13T23:24:08.049Z,5.03
2019-04-13T23:26:36.533Z,5.06
2019-04-13T23:29:06.427Z,5.06
2019-04-13T23:31:34.967Z,5.05
2019-04-13T23:34:03.434Z,5.10
2019-04-13T23:36:33.254Z,5.10
2019-04-13T23:39:01.856Z,5.09
2019-04-13T23:41:30.315Z,5.09
2019-04-13T23:43:58.795Z,5.09
2019-04-13T23:46:28.546Z,5.09
2019-04-13T23:48:57.135Z,5.09
2019-04-13T23:51:25.595Z,5.09
2019-04-13T23:53:54.068Z,5.08
2019-04-13T23:56:28.058Z,5.06
2019-04-13T23:59:04.821Z,5.08
